sensor_id;sensor_type;location;lat;lon;timestamp;P1;durP1;ratioP1;P2;durP2;ratioP2
51491;SDS011;37569;50.548;8.778;2024-01-30T00:02:25;15.9;;;10;;
51491;SDS011;37569;50.548;8.778;2024-01-30T00:07:25;12.7;;;9.2;;
51491;SDS011;37569;50.548;8.778;2024-01-30T00:12:25;12.2;;;9.1;;
51491;SDS011;37569;50.548;8.778;2024-01-30T00:17:26;14.1;;;9;;
51491;SDS011;37569;50.548;8.778;2024-01-30T00:22:26;12.5;;;9;;
51491;SDS011;37569;50.548;8.778;2024-01-30T00:27:26;15.7;;;10.8;;
51491;SDS011;37569;50.548;8.778;2024-01-30T00:32:26;15;;;10.4;;
51491;SDS011;37569;50.548;8.778;2024-01-30T00:37:27;14.3;;;10.3;;
51491;SDS011;37569;50.548;8.778;2024-01-30T00:42:27;14.9;;;10.3;;
51491;SDS011;37569;50.548;8.778;2024-01-30T00:47:27;16.3;;;11.8;;
51491;SDS011;37569;50.548;8.778;2024-01-30T00:52:27;13.9;;;11;;
51491;SDS011;37569;50.548;8.778;2024-01-30T00:57:28;19.2;;;12.5;;
51491;SDS011;37569;50.548;8.778;2024-01-30T01:02:28;14.5;;;11.3;;
51491;SDS011;37569;50.548;8.778;2024-01-30T01:07:28;15.8;;;12.2;;
51491;SDS011;37569;50.548;8.778;2024-01-30T01:12:28;14.8;;;11;;
51491;SDS011;37569;50.548;8.778;2024-01-30T01:17:29;14.7;;;10.4;;
51491;SDS011;37569;50.548;8.778;2024-01-30T01:22:29;13.5;;;9.4;;
51491;SDS011;37569;50.548;8.778;2024-01-30T01:27:29;13.5;;;10.7;;
51491;SDS011;37569;50.548;8.778;2024-01-30T01:32:29;14.3;;;9.6;;
51491;SDS011;37569;50.548;8.778;2024-01-30T01:37:30;13;;;9.6;;
51491;SDS011;37569;50.548;8.778;2024-01-30T01:42:30;12.5;;;9;;
51491;SDS011;37569;50.548;8.778;2024-01-30T01:47:30;11.2;;;8.5;;
51491;SDS011;37569;50.548;8.778;2024-01-30T01:52:30;13.6;;;9;;
51491;SDS011;37569;50.548;8.778;2024-01-30T01:57:31;13;;;8.8;;
51491;SDS011;37569;50.548;8.778;2024-01-30T02:02:31;11.7;;;9;;
51491;SDS011;37569;50.548;8.778;2024-01-30T02:07:31;13.2;;;9.4;;
51491;SDS011;37569;50.548;8.778;2024-01-30T02:12:31;15.2;;;10.2;;
51491;SDS011;37569;50.548;8.778;2024-01-30T02:17:32;14;;;9.4;;
51491;SDS011;37569;50.548;8.778;2024-01-30T02:22:32;14.8;;;10.4;;
51491;SDS011;37569;50.548;8.778;2024-01-30T02:27:32;15.6;;;10.8;;
51491;SDS011;37569;50.548;8.778;2024-01-30T02:32:32;14.2;;;9.2;;
51491;SDS011;37569;50.548;8.778;2024-01-30T02:37:32;13.8;;;8.7;;
51491;SDS011;37569;50.548;8.778;2024-01-30T02:42:33;15.7;;;11.3;;
51491;SDS011;37569;50.548;8.778;2024-01-30T02:47:33;14;;;10.4;;
51491;SDS011;37569;50.548;8.778;2024-01-30T02:52:33;12.6;;;9.4;;
51491;SDS011;37569;50.548;8.778;2024-01-30T02:57:33;14.1;;;9.9;;
51491;SDS011;37569;50.548;8.778;2024-01-30T03:02:33;12.8;;;9.7;;
51491;SDS011;37569;50.548;8.778;2024-01-30T03:07:34;13;;;9.9;;
51491;SDS011;37569;50.548;8.778;2024-01-30T03:12:34;12.6;;;9.5;;
51491;SDS011;37569;50.548;8.778;2024-01-30T03:17:34;12.3;;;9.1;;
51491;SDS011;37569;50.548;8.778;2024-01-30T03:22:34;12.7;;;9.4;;
51491;SDS011;37569;50.548;8.778;2024-01-30T03:27:34;12;;;9.4;;
51491;SDS011;37569;50.548;8.778;2024-01-30T03:32:35;14.3;;;9.9;;
51491;SDS011;37569;50.548;8.778;2024-01-30T03:37:35;12.4;;;9;;
51491;SDS011;37569;50.548;8.778;2024-01-30T03:42:35;13.7;;;9.2;;
51491;SDS011;37569;50.548;8.778;2024-01-30T03:47:35;13.6;;;9.4;;
51491;SDS011;37569;50.548;8.778;2024-01-30T03:52:35;14.7;;;10;;
51491;SDS011;37569;50.548;8.778;2024-01-30T03:57:36;12.5;;;9.5;;
51491;SDS011;37569;50.548;8.778;2024-01-30T04:02:36;14.1;;;10.4;;
51491;SDS011;37569;50.548;8.778;2024-01-30T04:07:36;14.4;;;10.5;;
51491;SDS011;37569;50.548;8.778;2024-01-30T04:12:36;14.4;;;10.7;;
51491;SDS011;37569;50.548;8.778;2024-01-30T04:17:36;17.1;;;10.4;;
51491;SDS011;37569;50.548;8.778;2024-01-30T04:22:37;13.6;;;10.2;;
51491;SDS011;37569;50.548;8.778;2024-01-30T04:27:37;16.4;;;10.5;;
51491;SDS011;37569;50.548;8.778;2024-01-30T04:32:37;16.8;;;11.3;;
51491;SDS011;37569;50.548;8.778;2024-01-30T04:37:37;16.1;;;10.7;;
51491;SDS011;37569;50.548;8.778;2024-01-30T04:42:38;15.8;;;11.2;;
51491;SDS011;37569;50.548;8.778;2024-01-30T04:47:38;14.9;;;10.3;;
51491;SDS011;37569;50.548;8.778;2024-01-30T04:52:38;15.6;;;10.6;;
51491;SDS011;37569;50.548;8.778;2024-01-30T04:57:38;15;;;10.4;;
51491;SDS011;37569;50.548;8.778;2024-01-30T05:02:39;15;;;10.6;;
51491;SDS011;37569;50.548;8.778;2024-01-30T05:07:40;13.4;;;10.6;;
51491;SDS011;37569;50.548;8.778;2024-01-30T05:12:39;13.7;;;10.5;;
51491;SDS011;37569;50.548;8.778;2024-01-30T05:17:39;14.6;;;10.5;;
51491;SDS011;37569;50.548;8.778;2024-01-30T05:22:39;14.1;;;10.8;;
51491;SDS011;37569;50.548;8.778;2024-01-30T05:27:40;13.9;;;9.9;;
51491;SDS011;37569;50.548;8.778;2024-01-30T05:32:40;12.2;;;9.3;;
51491;SDS011;37569;50.548;8.778;2024-01-30T05:37:40;13.9;;;10.1;;
51491;SDS011;37569;50.548;8.778;2024-01-30T05:42:40;15.5;;;11.1;;
51491;SDS011;37569;50.548;8.778;2024-01-30T05:47:40;15.5;;;10.9;;
51491;SDS011;37569;50.548;8.778;2024-01-30T05:52:41;17;;;13;;
51491;SDS011;37569;50.548;8.778;2024-01-30T05:57:41;15.4;;;11.3;;
51491;SDS011;37569;50.548;8.778;2024-01-30T06:02:41;25.3;;;15.3;;
51491;SDS011;37569;50.548;8.778;2024-01-30T06:07:41;16.1;;;11.9;;
51491;SDS011;37569;50.548;8.778;2024-01-30T06:12:42;15;;;11.9;;
51491;SDS011;37569;50.548;8.778;2024-01-30T06:17:42;19.3;;;12.7;;
51491;SDS011;37569;50.548;8.778;2024-01-30T06:22:42;21.3;;;14.1;;
51491;SDS011;37569;50.548;8.778;2024-01-30T06:27:42;17.2;;;11.9;;
51491;SDS011;37569;50.548;8.778;2024-01-30T06:32:43;19.4;;;12.5;;
51491;SDS011;37569;50.548;8.778;2024-01-30T06:37:43;16.4;;;12.2;;
51491;SDS011;37569;50.548;8.778;2024-01-30T06:42:43;18.1;;;12.7;;
51491;SDS011;37569;50.548;8.778;2024-01-30T06:47:43;18.8;;;12.9;;
51491;SDS011;37569;50.548;8.778;2024-01-30T06:52:43;18.8;;;12.9;;
51491;SDS011;37569;50.548;8.778;2024-01-30T06:57:44;20.2;;;13.4;;
51491;SDS011;37569;50.548;8.778;2024-01-30T07:02:44;20.4;;;13.4;;
51491;SDS011;37569;50.548;8.778;2024-01-30T07:07:44;29.6;;;19.8;;
51491;SDS011;37569;50.548;8.778;2024-01-30T07:12:44;26;;;17.3;;
51491;SDS011;37569;50.548;8.778;2024-01-30T07:17:45;21.4;;;15.4;;
51491;SDS011;37569;50.548;8.778;2024-01-30T07:22:45;22.4;;;15.5;;
51491;SDS011;37569;50.548;8.778;2024-01-30T07:27:45;21.2;;;14.8;;
51491;SDS011;37569;50.548;8.778;2024-01-30T07:32:45;21.9;;;14;;
51491;SDS011;37569;50.548;8.778;2024-01-30T07:37:45;22.3;;;14.8;;
51491;SDS011;37569;50.548;8.778;2024-01-30T07:42:46;22.7;;;15.5;;
51491;SDS011;37569;50.548;8.778;2024-01-30T07:47:46;23.3;;;16;;
51491;SDS011;37569;50.548;8.778;2024-01-30T07:52:46;23.2;;;15.3;;
51491;SDS011;37569;50.548;8.778;2024-01-30T07:57:46;26.8;;;16.7;;
51491;SDS011;37569;50.548;8.778;2024-01-30T08:02:46;19.9;;;14.5;;
51491;SDS011;37569;50.548;8.778;2024-01-30T08:07:46;27.9;;;20.5;;
51491;SDS011;37569;50.548;8.778;2024-01-30T08:12:47;23.3;;;16.2;;
51491;SDS011;37569;50.548;8.778;2024-01-30T08:17:47;19.2;;;14.1;;
51491;SDS011;37569;50.548;8.778;2024-01-30T08:22:47;22.6;;;16.6;;
51491;SDS011;37569;50.548;8.778;2024-01-30T08:27:47;34.2;;;23.6;;
51491;SDS011;37569;50.548;8.778;2024-01-30T08:32:48;28;;;19.6;;
51491;SDS011;37569;50.548;8.778;2024-01-30T08:37:48;32.3;;;22.9;;
51491;SDS011;37569;50.548;8.778;2024-01-30T08:42:48;40.1;;;26.7;;
51491;SDS011;37569;50.548;8.778;2024-01-30T08:47:48;35.1;;;23.5;;
51491;SDS011;37569;50.548;8.778;2024-01-30T08:52:49;20.2;;;13.7;;
51491;SDS011;37569;50.548;8.778;2024-01-30T08:57:49;17.3;;;13;;
51491;SDS011;37569;50.548;8.778;2024-01-30T09:02:49;18;;;13.1;;
51491;SDS011;37569;50.548;8.778;2024-01-30T09:07:49;18.8;;;13.4;;
51491;SDS011;37569;50.548;8.778;2024-01-30T09:12:50;18.5;;;12.9;;
51491;SDS011;37569;50.548;8.778;2024-01-30T09:17:50;18;;;13.4;;
51491;SDS011;37569;50.548;8.778;2024-01-30T09:22:50;18.2;;;13.7;;
51491;SDS011;37569;50.548;8.778;2024-01-30T09:27:50;19.7;;;14.4;;
51491;SDS011;37569;50.548;8.778;2024-01-30T09:32:51;22.4;;;15.3;;
51491;SDS011;37569;50.548;8.778;2024-01-30T09:37:51;19;;;14.8;;
51491;SDS011;37569;50.548;8.778;2024-01-30T09:42:51;22.9;;;15.7;;
51491;SDS011;37569;50.548;8.778;2024-01-30T09:47:52;20.4;;;15.8;;
51491;SDS011;37569;50.548;8.778;2024-01-30T09:52:52;18.9;;;14.9;;
51491;SDS011;37569;50.548;8.778;2024-01-30T09:57:52;21.8;;;15.7;;
51491;SDS011;37569;50.548;8.778;2024-01-30T10:02:52;20.3;;;15.4;;
51491;SDS011;37569;50.548;8.778;2024-01-30T10:07:53;21;;;15.9;;
51491;SDS011;37569;50.548;8.778;2024-01-30T10:12:53;21;;;16.2;;
51491;SDS011;37569;50.548;8.778;2024-01-30T10:17:53;21;;;16.4;;
51491;SDS011;37569;50.548;8.778;2024-01-30T10:22:54;20.9;;;16.2;;
51491;SDS011;37569;50.548;8.778;2024-01-30T10:27:54;19.9;;;15.8;;
51491;SDS011;37569;50.548;8.778;2024-01-30T10:32:54;20.3;;;15.3;;
51491;SDS011;37569;50.548;8.778;2024-01-30T10:37:55;20.4;;;16.1;;
51491;SDS011;37569;50.548;8.778;2024-01-30T10:42:55;19.2;;;15.6;;
51491;SDS011;37569;50.548;8.778;2024-01-30T10:47:55;21.5;;;16.3;;
51491;SDS011;37569;50.548;8.778;2024-01-30T10:52:55;20.2;;;15.9;;
51491;SDS011;37569;50.548;8.778;2024-01-30T10:57:56;19;;;15.4;;
51491;SDS011;37569;50.548;8.778;2024-01-30T11:02:56;21.2;;;16;;
51491;SDS011;37569;50.548;8.778;2024-01-30T11:07:56;22.5;;;15.9;;
51491;SDS011;37569;50.548;8.778;2024-01-30T11:12:57;21.9;;;16.4;;
51491;SDS011;37569;50.548;8.778;2024-01-30T11:17:57;20.6;;;15.6;;
51491;SDS011;37569;50.548;8.778;2024-01-30T11:22:58;20.8;;;15.4;;
51491;SDS011;37569;50.548;8.778;2024-01-30T11:27:58;20.2;;;16;;
51491;SDS011;37569;50.548;8.778;2024-01-30T11:32:59;20.6;;;16.1;;
51491;SDS011;37569;50.548;8.778;2024-01-30T11:37:59;20.8;;;16;;
51491;SDS011;37569;50.548;8.778;2024-01-30T11:43:00;21.1;;;16;;
51491;SDS011;37569;50.548;8.778;2024-01-30T11:47:59;20.4;;;15.3;;
51491;SDS011;37569;50.548;8.778;2024-01-30T11:53:00;21.4;;;15;;
51491;SDS011;37569;50.548;8.778;2024-01-30T11:58:00;19.7;;;14.6;;
51491;SDS011;37569;50.548;8.778;2024-01-30T12:03:00;18.4;;;14.9;;
51491;SDS011;37569;50.548;8.778;2024-01-30T12:08:01;20.2;;;14.9;;
51491;SDS011;37569;50.548;8.778;2024-01-30T12:13:01;21.2;;;15.3;;
51491;SDS011;37569;50.548;8.778;2024-01-30T12:18:05;18.7;;;15;;
51491;SDS011;37569;50.548;8.778;2024-01-30T12:23:02;19.1;;;15.1;;
51491;SDS011;37569;50.548;8.778;2024-01-30T12:28:02;19.4;;;15.4;;
51491;SDS011;37569;50.548;8.778;2024-01-30T12:33:03;20.2;;;14.9;;
51491;SDS011;37569;50.548;8.778;2024-01-30T12:38:03;19.6;;;14.8;;
51491;SDS011;37569;50.548;8.778;2024-01-30T12:43:03;19.7;;;14.8;;
51491;SDS011;37569;50.548;8.778;2024-01-30T12:48:04;18.4;;;14.4;;
51491;SDS011;37569;50.548;8.778;2024-01-30T12:53:04;17.8;;;14.4;;
51491;SDS011;37569;50.548;8.778;2024-01-30T12:58:05;18.3;;;14.5;;
51491;SDS011;37569;50.548;8.778;2024-01-30T13:03:05;17.6;;;15.1;;
51491;SDS011;37569;50.548;8.778;2024-01-30T13:08:06;18.7;;;15;;
51491;SDS011;37569;50.548;8.778;2024-01-30T13:13:06;17.7;;;15.2;;
51491;SDS011;37569;50.548;8.778;2024-01-30T13:18:06;17.5;;;14.7;;
51491;SDS011;37569;50.548;8.778;2024-01-30T13:23:07;19.1;;;14.8;;
51491;SDS011;37569;50.548;8.778;2024-01-30T13:28:07;20.3;;;15.4;;
51491;SDS011;37569;50.548;8.778;2024-01-30T13:33:08;20.5;;;15.3;;
51491;SDS011;37569;50.548;8.778;2024-01-30T13:38:08;19.2;;;15.1;;
51491;SDS011;37569;50.548;8.778;2024-01-30T13:43:09;20.3;;;15.7;;
51491;SDS011;37569;50.548;8.778;2024-01-30T13:48:09;20.1;;;15;;
51491;SDS011;37569;50.548;8.778;2024-01-30T13:53:10;18.1;;;13.9;;
51491;SDS011;37569;50.548;8.778;2024-01-30T13:58:10;17.8;;;14.5;;
51491;SDS011;37569;50.548;8.778;2024-01-30T14:03:10;17.7;;;14.9;;
51491;SDS011;37569;50.548;8.778;2024-01-30T14:08:11;18.1;;;13.8;;
51491;SDS011;37569;50.548;8.778;2024-01-30T14:13:11;18.8;;;14;;
51491;SDS011;37569;50.548;8.778;2024-01-30T14:18:12;19.3;;;13.7;;
51491;SDS011;37569;50.548;8.778;2024-01-30T14:23:12;18;;;14.4;;
51491;SDS011;37569;50.548;8.778;2024-01-30T14:28:13;19;;;14;;
51491;SDS011;37569;50.548;8.778;2024-01-30T14:33:14;17.8;;;13.8;;
51491;SDS011;37569;50.548;8.778;2024-01-30T14:38:14;17.8;;;13.8;;
51491;SDS011;37569;50.548;8.778;2024-01-30T14:43:14;17.1;;;13.5;;
51491;SDS011;37569;50.548;8.778;2024-01-30T14:48:15;17.8;;;13.5;;
51491;SDS011;37569;50.548;8.778;2024-01-30T14:53:15;17.6;;;13.7;;
51491;SDS011;37569;50.548;8.778;2024-01-30T14:58:15;20.1;;;15.1;;
51491;SDS011;37569;50.548;8.778;2024-01-30T15:03:16;17.4;;;13.7;;
51491;SDS011;37569;50.548;8.778;2024-01-30T15:08:16;17.8;;;14.3;;
51491;SDS011;37569;50.548;8.778;2024-01-30T15:13:17;19.8;;;14.4;;
51491;SDS011;37569;50.548;8.778;2024-01-30T15:18:17;18.8;;;14;;
51491;SDS011;37569;50.548;8.778;2024-01-30T15:23:17;20;;;13.6;;
51491;SDS011;37569;50.548;8.778;2024-01-30T15:28:18;20.7;;;14.6;;
51491;SDS011;37569;50.548;8.778;2024-01-30T15:33:18;17.3;;;12.7;;
51491;SDS011;37569;50.548;8.778;2024-01-30T15:38:19;16.6;;;14.1;;
51491;SDS011;37569;50.548;8.778;2024-01-30T15:43:19;22;;;13.9;;
51491;SDS011;37569;50.548;8.778;2024-01-30T15:48:20;15.6;;;13.4;;
51491;SDS011;37569;50.548;8.778;2024-01-30T15:53:20;18.8;;;13.7;;
51491;SDS011;37569;50.548;8.778;2024-01-30T15:58:20;20.8;;;14.2;;
51491;SDS011;37569;50.548;8.778;2024-01-30T16:03:21;18.7;;;14.6;;
51491;SDS011;37569;50.548;8.778;2024-01-30T16:08:21;19.7;;;13.9;;
51491;SDS011;37569;50.548;8.778;2024-01-30T16:13:22;19;;;14.6;;
51491;SDS011;37569;50.548;8.778;2024-01-30T16:18:22;20;;;14.6;;
51491;SDS011;37569;50.548;8.778;2024-01-30T16:23:23;20.3;;;13.9;;
51491;SDS011;37569;50.548;8.778;2024-01-30T16:28:24;16.8;;;14.1;;
51491;SDS011;37569;50.548;8.778;2024-01-30T16:33:23;18.7;;;14;;
51491;SDS011;37569;50.548;8.778;2024-01-30T16:38:24;19.3;;;14;;
51491;SDS011;37569;50.548;8.778;2024-01-30T16:43:24;26.4;;;16.5;;
51491;SDS011;37569;50.548;8.778;2024-01-30T16:48:26;19.7;;;15.5;;
51491;SDS011;37569;50.548;8.778;2024-01-30T16:53:25;23;;;16.2;;
51491;SDS011;37569;50.548;8.778;2024-01-30T16:58:26;22.8;;;17.4;;
51491;SDS011;37569;50.548;8.778;2024-01-30T17:03:26;22.3;;;16;;
51491;SDS011;37569;50.548;8.778;2024-01-30T17:08:26;20.4;;;15.9;;
51491;SDS011;37569;50.548;8.778;2024-01-30T17:13:27;21;;;15.9;;
51491;SDS011;37569;50.548;8.778;2024-01-30T17:18:28;18.9;;;16.1;;
51491;SDS011;37569;50.548;8.778;2024-01-30T17:23:28;21.8;;;17;;
51491;SDS011;37569;50.548;8.778;2024-01-30T17:28:28;21.5;;;16.7;;
51491;SDS011;37569;50.548;8.778;2024-01-30T17:33:29;21.6;;;17;;
51491;SDS011;37569;50.548;8.778;2024-01-30T17:38:29;24.8;;;17.8;;
51491;SDS011;37569;50.548;8.778;2024-01-30T17:43:30;22.4;;;16.9;;
51491;SDS011;37569;50.548;8.778;2024-01-30T17:48:30;22.3;;;17.2;;
51491;SDS011;37569;50.548;8.778;2024-01-30T17:53:30;27.9;;;19.6;;
51491;SDS011;37569;50.548;8.778;2024-01-30T17:58:31;27.9;;;20.9;;
51491;SDS011;37569;50.548;8.778;2024-01-30T18:03:31;33.8;;;23.9;;
51491;SDS011;37569;50.548;8.778;2024-01-30T18:08:32;25.2;;;18.5;;
51491;SDS011;37569;50.548;8.778;2024-01-30T18:13:32;26.1;;;18.1;;
51491;SDS011;37569;50.548;8.778;2024-01-30T18:18:32;24.9;;;17.6;;
51491;SDS011;37569;50.548;8.778;2024-01-30T18:23:33;26.6;;;20.9;;
51491;SDS011;37569;50.548;8.778;2024-01-30T18:28:33;36;;;24.8;;
51491;SDS011;37569;50.548;8.778;2024-01-30T18:33:34;27.1;;;19.4;;
51491;SDS011;37569;50.548;8.778;2024-01-30T18:38:34;26.7;;;18.2;;
51491;SDS011;37569;50.548;8.778;2024-01-30T18:43:35;24.6;;;19;;
51491;SDS011;37569;50.548;8.778;2024-01-30T18:48:35;26.4;;;18.6;;
51491;SDS011;37569;50.548;8.778;2024-01-30T18:53:35;25.3;;;18.4;;
51491;SDS011;37569;50.548;8.778;2024-01-30T18:58:36;28.7;;;19.3;;
51491;SDS011;37569;50.548;8.778;2024-01-30T19:03:36;26.2;;;19.4;;
51491;SDS011;37569;50.548;8.778;2024-01-30T19:08:36;25.8;;;17.9;;
51491;SDS011;37569;50.548;8.778;2024-01-30T19:13:37;27.8;;;20.2;;
51491;SDS011;37569;50.548;8.778;2024-01-30T19:18:37;22.1;;;17.3;;
51491;SDS011;37569;50.548;8.778;2024-01-30T19:23:38;27.9;;;20.7;;
51491;SDS011;37569;50.548;8.778;2024-01-30T19:28:38;25.4;;;19.4;;
51491;SDS011;37569;50.548;8.778;2024-01-30T19:33:38;24.1;;;19;;
51491;SDS011;37569;50.548;8.778;2024-01-30T19:38:39;29.7;;;20;;
51491;SDS011;37569;50.548;8.778;2024-01-30T19:43:39;27.1;;;20.4;;
51491;SDS011;37569;50.548;8.778;2024-01-30T19:48:40;27.5;;;19.5;;
51491;SDS011;37569;50.548;8.778;2024-01-30T19:53:40;24.6;;;18.8;;
51491;SDS011;37569;50.548;8.778;2024-01-30T19:58:41;24.5;;;18.5;;
51491;SDS011;37569;50.548;8.778;2024-01-30T20:03:41;25.7;;;19.5;;
51491;SDS011;37569;50.548;8.778;2024-01-30T20:08:41;30.1;;;20.6;;
51491;SDS011;37569;50.548;8.778;2024-01-30T20:13:42;34.8;;;23.5;;
51491;SDS011;37569;50.548;8.778;2024-01-30T20:18:42;34.5;;;23;;
51491;SDS011;37569;50.548;8.778;2024-01-30T20:23:43;31.9;;;23.9;;
51491;SDS011;37569;50.548;8.778;2024-01-30T20:28:43;28.9;;;20.7;;
51491;SDS011;37569;50.548;8.778;2024-01-30T20:33:43;27.7;;;20.5;;
51491;SDS011;37569;50.548;8.778;2024-01-30T20:38:44;44.9;;;29.2;;
51491;SDS011;37569;50.548;8.778;2024-01-30T20:43:44;32.6;;;23.6;;
51491;SDS011;37569;50.548;8.778;2024-01-30T20:48:45;28.5;;;21.1;;
51491;SDS011;37569;50.548;8.778;2024-01-30T20:53:45;29.2;;;20.7;;
51491;SDS011;37569;50.548;8.778;2024-01-30T20:58:45;24.5;;;17.9;;
51491;SDS011;37569;50.548;8.778;2024-01-30T21:03:46;24.7;;;18.3;;
51491;SDS011;37569;50.548;8.778;2024-01-30T21:08:46;23.5;;;16.5;;
51491;SDS011;37569;50.548;8.778;2024-01-30T21:13:47;23;;;16.5;;
51491;SDS011;37569;50.548;8.778;2024-01-30T21:18:47;27.5;;;19.7;;
51491;SDS011;37569;50.548;8.778;2024-01-30T21:23:47;26.8;;;19.6;;
51491;SDS011;37569;50.548;8.778;2024-01-30T21:28:48;28.5;;;18;;
51491;SDS011;37569;50.548;8.778;2024-01-30T21:33:48;23.3;;;18.6;;
51491;SDS011;37569;50.548;8.778;2024-01-30T21:38:48;23.5;;;17.8;;
51491;SDS011;37569;50.548;8.778;2024-01-30T21:43:49;23.6;;;17;;
51491;SDS011;37569;50.548;8.778;2024-01-30T21:48:49;23.3;;;17.7;;
51491;SDS011;37569;50.548;8.778;2024-01-30T21:53:50;22.2;;;16.4;;
51491;SDS011;37569;50.548;8.778;2024-01-30T21:58:50;21.9;;;16.8;;
51491;SDS011;37569;50.548;8.778;2024-01-30T22:03:50;23.1;;;16.1;;
51491;SDS011;37569;50.548;8.778;2024-01-30T22:08:51;21.5;;;15.3;;
51491;SDS011;37569;50.548;8.778;2024-01-30T22:13:51;24.2;;;16;;
51491;SDS011;37569;50.548;8.778;2024-01-30T22:18:51;26.7;;;17.6;;
51491;SDS011;37569;50.548;8.778;2024-01-30T22:23:52;32.7;;;20.9;;
51491;SDS011;37569;50.548;8.778;2024-01-30T22:28:52;130.1;;;52.7;;
51491;SDS011;37569;50.548;8.778;2024-01-30T22:33:53;64.4;;;31.4;;
51491;SDS011;37569;50.548;8.778;2024-01-30T22:38:54;23.3;;;16.5;;
51491;SDS011;37569;50.548;8.778;2024-01-30T22:43:53;23.6;;;16.8;;
51491;SDS011;37569;50.548;8.778;2024-01-30T22:48:54;19.9;;;15.4;;
51491;SDS011;37569;50.548;8.778;2024-01-30T22:53:54;20.8;;;15.1;;
51491;SDS011;37569;50.548;8.778;2024-01-30T22:58:55;21;;;15.6;;
51491;SDS011;37569;50.548;8.778;2024-01-30T23:03:55;19.1;;;14.9;;
51491;SDS011;37569;50.548;8.778;2024-01-30T23:08:55;20.9;;;15;;
51491;SDS011;37569;50.548;8.778;2024-01-30T23:13:56;19;;;14.4;;
51491;SDS011;37569;50.548;8.778;2024-01-30T23:18:56;19.7;;;14.8;;
51491;SDS011;37569;50.548;8.778;2024-01-30T23:23:57;22.6;;;15.6;;
51491;SDS011;37569;50.548;8.778;2024-01-30T23:28:57;19.7;;;15.2;;
51491;SDS011;37569;50.548;8.778;2024-01-30T23:33:57;22.5;;;15.4;;
51491;SDS011;37569;50.548;8.778;2024-01-30T23:38:58;21.1;;;15.7;;
51491;SDS011;37569;50.548;8.778;2024-01-30T23:43:58;21.8;;;15.3;;
51491;SDS011;37569;50.548;8.778;2024-01-30T23:48:59;21.3;;;14.8;;
51491;SDS011;37569;50.548;8.778;2024-01-30T23:53:59;20.5;;;15.2;;
51491;SDS011;37569;50.548;8.778;2024-01-30T23:59:00;18.2;;;14;;
